createdAt,value
2018-10-18T00:00:11.723Z,47.70
2018-10-18T00:02:41.305Z,48.83
2018-10-18T00:05:10.976Z,46.20
2018-10-18T00:07:40.619Z,49.35
2018-10-18T00:10:10.574Z,43.03
2018-10-18T00:12:40.091Z,49.10
2018-10-18T00:15:10.055Z,48.37
2018-10-18T00:17:45.059Z,46.97
2018-10-18T00:20:16.125Z,53.10
2018-10-18T00:22:46.262Z,43.77
2018-10-18T00:25:16.808Z,48.53
2018-10-18T00:27:46.440Z,46.17
2018-10-18T00:30:16.691Z,52.73
2018-10-18T00:32:46.220Z,49.30
2018-10-18T00:35:15.809Z,49.50
2018-10-18T00:37:45.299Z,49.07
2018-10-18T00:40:14.910Z,48.33
2018-10-18T00:42:44.652Z,48.13
2018-10-18T00:45:14.354Z,51.47
2018-10-18T00:47:43.995Z,50.93
2018-10-18T00:50:13.794Z,47.90
2018-10-18T00:52:43.269Z,51.00
2018-10-18T00:55:13.199Z,48.27
2018-10-18T00:57:42.985Z,49.73
2018-10-18T01:00:13.167Z,49.63
2018-10-18T01:02:42.790Z,48.98
2018-10-18T01:05:12.414Z,51.10
2018-10-18T01:07:42.014Z,50.17
2018-10-18T01:10:11.542Z,52.87
2018-10-18T01:12:41.279Z,47.53
2018-10-18T01:15:10.815Z,52.85
2018-10-18T01:17:40.462Z,61.33
2018-10-18T01:20:10.209Z,47.10
2018-10-18T01:22:39.808Z,50.40
2018-10-18T01:25:09.424Z,49.57
2018-10-18T01:32:36.466Z,55.93
2018-10-18T01:35:06.864Z,51.87
2018-10-18T01:37:36.489Z,50.38
2018-10-18T01:40:06.341Z,54.07
2018-10-18T01:42:35.903Z,53.13
2018-10-18T01:45:05.994Z,54.00
2018-10-18T01:47:35.535Z,49.97
2018-10-18T01:50:06.009Z,52.13
2018-10-18T01:52:35.649Z,51.63
2018-10-18T01:55:06.480Z,48.50
2018-10-18T01:57:36.034Z,56.33
2018-10-18T02:00:06.560Z,57.33
2018-10-18T02:02:36.178Z,56.13
2018-10-18T02:05:05.803Z,52.60
2018-10-18T02:07:35.339Z,53.93
2018-10-18T02:10:06.296Z,52.37
2018-10-18T02:12:36.268Z,53.45
2018-10-18T02:15:07.398Z,50.30
2018-10-18T02:17:37.018Z,50.80
2018-10-18T02:20:08.246Z,45.90
2018-10-18T02:22:38.013Z,41.63
2018-10-18T02:25:08.318Z,49.08
2018-10-18T02:27:37.903Z,49.20
2018-10-18T02:30:07.559Z,47.70
2018-10-18T02:32:36.998Z,47.63
2018-10-18T02:35:07.208Z,56.93
2018-10-18T02:37:36.929Z,51.33
2018-10-18T02:40:06.728Z,52.73
2018-10-18T02:42:36.421Z,51.95
2018-10-18T02:45:06.204Z,59.40
2018-10-18T02:47:36.050Z,48.77
2018-10-18T02:50:06.055Z,51.17
2018-10-18T02:52:35.713Z,49.67
2018-10-18T02:55:05.953Z,49.40
2018-10-18T02:57:35.570Z,51.03
2018-10-18T03:00:06.234Z,48.87
2018-10-18T03:02:35.850Z,67.27
2018-10-18T03:05:06.334Z,76.37
2018-10-18T03:07:35.950Z,52.30
2018-10-18T03:10:06.944Z,51.13
2018-10-18T03:12:36.726Z,44.40
2018-10-18T03:15:07.904Z,44.20
2018-10-18T03:17:37.820Z,51.03
2018-10-18T03:20:08.568Z,49.13
2018-10-18T03:22:38.133Z,48.90
2018-10-18T03:25:09.653Z,54.73
2018-10-18T03:27:39.836Z,50.13
2018-10-18T03:30:10.215Z,55.67
2018-10-18T03:32:39.611Z,51.50
2018-10-18T03:35:09.960Z,53.67
2018-10-18T03:37:39.710Z,52.43
2018-10-18T03:40:09.856Z,52.53
2018-10-18T03:42:39.505Z,55.27
2018-10-18T03:45:09.089Z,51.50
2018-10-18T03:47:38.675Z,52.43
2018-10-18T03:50:08.613Z,57.62
2018-10-18T03:52:38.204Z,56.73
2018-10-18T03:55:08.100Z,50.88
2018-10-18T03:57:37.656Z,49.58
2018-10-18T04:00:08.729Z,57.78
2018-10-18T04:02:38.624Z,54.77
2018-10-18T04:05:09.234Z,58.67
2018-10-18T04:07:39.055Z,54.67
2018-10-18T04:10:09.065Z,52.53
2018-10-18T04:12:38.714Z,52.03
2018-10-18T04:15:09.208Z,55.25
2018-10-18T04:17:39.966Z,55.27
2018-10-18T04:20:09.760Z,48.97
2018-10-18T04:22:39.445Z,56.50
2018-10-18T04:25:09.430Z,51.00
2018-10-18T04:27:39.724Z,51.90
2018-10-18T04:30:09.760Z,50.33
2018-10-18T04:32:39.985Z,52.90
2018-10-18T04:35:09.509Z,47.93
2018-10-18T04:37:39.069Z,52.87
2018-10-18T04:40:08.693Z,49.60
2018-10-18T04:42:39.109Z,45.52
2018-10-18T04:45:09.429Z,53.10
2018-10-18T04:47:39.453Z,55.77
2018-10-18T04:50:09.728Z,48.60
2018-10-18T04:52:39.275Z,54.60
2018-10-18T04:55:08.633Z,55.23
2018-10-18T04:57:38.411Z,51.10
2018-10-18T05:00:08.438Z,55.07
2018-10-18T05:02:38.329Z,54.50
2018-10-18T05:05:24.927Z,54.50
2018-10-18T05:07:54.553Z,48.10
2018-10-18T05:10:24.109Z,50.53
2018-10-18T05:12:53.891Z,44.20
2018-10-18T05:15:23.415Z,48.77
2018-10-18T05:17:53.090Z,47.90
2018-10-18T05:20:22.624Z,48.53
2018-10-18T05:22:52.225Z,46.30
2018-10-18T05:25:21.823Z,48.10
2018-10-18T05:27:51.470Z,46.57
2018-10-18T05:30:21.139Z,52.37
2018-10-18T05:32:50.698Z,49.50
2018-10-18T05:35:20.228Z,48.47
2018-10-18T05:37:49.765Z,53.77
2018-10-18T05:40:20.385Z,51.08
2018-10-18T05:42:50.158Z,50.70
2018-10-18T05:45:19.783Z,53.30
2018-10-18T05:47:49.325Z,52.40
2018-10-18T05:50:18.919Z,49.70
2018-10-18T05:52:48.808Z,51.63
2018-10-18T05:55:18.497Z,55.30
2018-10-18T05:57:48.236Z,51.73
2018-10-18T06:00:19.050Z,56.57
2018-10-18T06:02:48.653Z,55.70
2018-10-18T06:05:18.884Z,51.30
2018-10-18T06:07:48.625Z,55.03
2018-10-18T06:10:34.975Z,51.20
2018-10-18T06:13:04.903Z,65.27
2018-10-18T06:15:34.407Z,75.90
2018-10-18T06:18:04.196Z,47.97
2018-10-18T06:20:33.715Z,46.43
2018-10-18T06:23:03.375Z,47.87
2018-10-18T06:25:32.945Z,45.57
2018-10-18T06:28:02.937Z,45.00
2018-10-18T06:30:32.738Z,37.85
2018-10-18T06:33:02.344Z,41.83
2018-10-18T06:35:32.063Z,41.85
2018-10-18T06:38:01.785Z,43.53
2018-10-18T06:40:31.484Z,44.97
2018-10-18T06:43:01.065Z,45.17
2018-10-18T06:45:30.622Z,49.67
2018-10-18T06:48:00.281Z,52.23
2018-10-18T06:50:30.148Z,51.33
2018-10-18T06:52:59.663Z,47.77
2018-10-18T06:55:29.444Z,47.23
2018-10-18T06:58:00.165Z,48.13
2018-10-18T07:00:29.858Z,51.90
2018-10-18T07:02:59.678Z,43.53
2018-10-18T07:05:29.530Z,72.97
2018-10-18T07:07:59.125Z,81.67
2018-10-18T07:10:28.736Z,54.20
2018-10-18T07:12:58.331Z,44.20
2018-10-18T07:15:28.057Z,37.63
2018-10-18T07:17:57.706Z,45.52
2018-10-18T07:20:27.479Z,39.27
2018-10-18T07:22:57.296Z,40.00
2018-10-18T07:25:27.146Z,40.10
2018-10-18T07:27:56.741Z,41.47
2018-10-18T07:30:26.316Z,45.05
2018-10-18T07:32:55.929Z,78.03
2018-10-18T07:35:25.652Z,51.80
2018-10-18T07:37:55.421Z,39.93
2018-10-18T07:40:25.271Z,38.67
2018-10-18T07:42:55.039Z,43.75
2018-10-18T07:45:24.711Z,43.63
2018-10-18T07:47:55.096Z,37.35
2018-10-18T07:50:25.951Z,41.13
2018-10-18T07:52:55.584Z,38.77
2018-10-18T07:55:25.321Z,39.23
2018-10-18T07:57:54.971Z,33.63
2018-10-18T08:00:24.691Z,33.67
2018-10-18T08:02:54.274Z,35.97
2018-10-18T08:05:24.128Z,42.45
2018-10-18T08:07:53.779Z,33.27
2018-10-18T08:10:23.366Z,29.85
2018-10-18T08:12:53.076Z,29.07
2018-10-18T08:15:22.919Z,26.40
2018-10-18T08:17:52.766Z,23.63
2018-10-18T08:20:22.539Z,29.33
2018-10-18T08:22:52.347Z,36.93
2018-10-18T08:25:22.211Z,30.67
2018-10-18T08:27:51.930Z,22.77
2018-10-18T08:30:21.659Z,25.92
2018-10-18T08:32:51.285Z,22.55
2018-10-18T08:35:21.013Z,23.03
2018-10-18T08:37:50.919Z,24.13
2018-10-18T08:40:20.553Z,22.67
2018-10-18T08:42:50.536Z,19.67
2018-10-18T08:45:20.149Z,24.27
2018-10-18T08:47:49.789Z,23.52
2018-10-18T08:50:19.678Z,19.33
2018-10-18T08:52:49.395Z,22.53
2018-10-18T08:55:19.013Z,23.60
2018-10-18T08:57:48.504Z,21.00
2018-10-18T09:00:18.320Z,21.83
2018-10-18T09:02:48.177Z,20.90
2018-10-18T09:05:17.850Z,19.37
2018-10-18T09:07:47.695Z,18.20
2018-10-18T09:10:17.394Z,21.27
2018-10-18T09:12:46.994Z,19.67
2018-10-18T09:15:16.663Z,20.43
2018-10-18T09:17:46.344Z,21.83
2018-10-18T09:20:16.094Z,18.92
2018-10-18T09:22:45.873Z,21.42
2018-10-18T09:25:15.563Z,19.57
2018-10-18T09:27:45.189Z,18.50
2018-10-18T09:30:15.039Z,17.00
2018-10-18T09:32:44.755Z,17.87
2018-10-18T09:35:14.916Z,19.95
2018-10-18T09:37:45.880Z,18.10
2018-10-18T09:40:15.715Z,23.57
2018-10-18T09:42:45.366Z,23.37
2018-10-18T09:45:15.160Z,19.80
2018-10-18T09:47:44.911Z,20.63
2018-10-18T09:50:14.545Z,24.27
2018-10-18T09:52:44.132Z,26.37
2018-10-18T09:55:14.090Z,22.70
2018-10-18T09:57:43.865Z,17.70
2018-10-18T10:00:18.841Z,21.00
2018-10-18T10:02:49.477Z,20.57
2018-10-18T10:05:20.360Z,17.43
2018-10-18T10:07:50.011Z,18.20
2018-10-18T10:10:19.779Z,18.50
2018-10-18T10:12:49.529Z,16.00
2018-10-18T10:15:19.308Z,18.10
2018-10-18T10:17:49.377Z,18.75
2018-10-18T10:20:19.115Z,16.67
2018-10-18T10:22:48.757Z,21.57
2018-10-18T10:25:18.419Z,16.47
2018-10-18T10:27:48.091Z,17.13
2018-10-18T10:30:17.764Z,20.10
2018-10-18T10:32:47.565Z,14.23
2018-10-18T10:35:17.719Z,14.67
2018-10-18T10:37:47.366Z,14.57
2018-10-18T10:40:17.318Z,16.40
2018-10-18T10:42:46.984Z,12.97
2018-10-18T10:45:16.794Z,12.93
2018-10-18T10:47:46.446Z,17.63
2018-10-18T10:50:16.592Z,11.40
2018-10-18T10:52:46.216Z,13.13
2018-10-18T10:55:15.925Z,12.83
2018-10-18T10:57:45.575Z,10.43
2018-10-18T11:00:29.797Z,9.83
2018-10-18T11:02:59.663Z,11.90
2018-10-18T11:05:29.385Z,8.50
2018-10-18T11:08:00.127Z,15.50
2018-10-18T11:10:29.776Z,12.40
2018-10-18T11:12:59.566Z,9.47
2018-10-18T11:15:29.386Z,9.83
2018-10-18T11:17:59.208Z,8.33
2018-10-18T11:20:28.871Z,10.53
2018-10-18T11:22:58.693Z,8.67
2018-10-18T11:25:28.597Z,12.23
2018-10-18T11:27:58.438Z,9.60
2018-10-18T11:30:28.241Z,7.45
2018-10-18T11:32:57.806Z,9.83
2018-10-18T11:35:27.570Z,80.15
2018-10-18T11:37:57.428Z,74.10
2018-10-18T11:40:27.276Z,29.82
2018-10-18T11:42:56.920Z,12.60
2018-10-18T11:45:26.701Z,22.55
2018-10-18T11:47:56.707Z,14.70
2018-10-18T11:50:26.791Z,13.97
2018-10-18T11:52:57.236Z,9.60
2018-10-18T11:55:27.250Z,12.83
2018-10-18T11:57:57.131Z,10.13
2018-10-18T12:00:26.757Z,11.63
2018-10-18T12:02:56.446Z,9.53
2018-10-18T12:05:27.251Z,7.50
2018-10-18T12:07:57.099Z,8.13
2018-10-18T12:10:26.731Z,7.63
2018-10-18T12:12:56.420Z,10.07
2018-10-18T12:15:26.059Z,13.37
2018-10-18T12:17:55.655Z,11.27
2018-10-18T12:20:25.512Z,6.33
2018-10-18T12:22:55.376Z,6.37
2018-10-18T12:25:25.267Z,7.10
2018-10-18T12:27:55.135Z,6.83
2018-10-18T12:30:24.705Z,5.30
2018-10-18T12:32:54.532Z,6.73
2018-10-18T12:35:24.633Z,5.37
2018-10-18T12:37:54.359Z,5.17
2018-10-18T12:40:24.235Z,9.65
2018-10-18T12:42:53.937Z,9.83
2018-10-18T12:45:23.643Z,10.85
2018-10-18T12:47:53.582Z,10.20
2018-10-18T12:50:23.174Z,11.33
2018-10-18T12:52:52.852Z,11.63
2018-10-18T12:55:22.855Z,10.93
2018-10-18T12:57:52.472Z,10.17
2018-10-18T13:00:22.830Z,11.43
2018-10-18T13:02:52.650Z,11.30
2018-10-18T13:05:22.374Z,11.30
2018-10-18T13:07:52.054Z,10.30
2018-10-18T13:10:21.935Z,12.33
2018-10-18T13:12:51.727Z,10.17
2018-10-18T13:15:21.452Z,15.57
2018-10-18T13:17:51.376Z,12.07
2018-10-18T13:20:21.088Z,10.17
2018-10-18T13:22:50.829Z,8.87
2018-10-18T13:25:20.649Z,8.63
2018-10-18T13:27:50.378Z,8.97
2018-10-18T13:30:20.365Z,8.13
2018-10-18T13:32:50.241Z,8.95
2018-10-18T13:35:20.291Z,5.83
2018-10-18T13:37:49.993Z,6.78
2018-10-18T13:40:19.908Z,4.47
2018-10-18T13:42:49.583Z,4.80
2018-10-18T13:45:19.408Z,3.77
2018-10-18T13:47:49.299Z,4.50
2018-10-18T13:50:19.084Z,2.90
2018-10-18T13:52:48.831Z,2.65
2018-10-18T13:55:18.481Z,2.03
2018-10-18T13:57:48.327Z,1.97
2018-10-18T14:00:29.273Z,1.80
2018-10-18T14:02:59.256Z,2.10
2018-10-18T14:05:29.157Z,7.47
2018-10-18T14:07:59.125Z,3.90
2018-10-18T14:10:28.687Z,3.23
2018-10-18T14:12:58.733Z,2.05
2018-10-18T14:15:29.649Z,3.23
2018-10-18T14:17:59.456Z,2.80
2018-10-18T14:20:29.103Z,2.93
2018-10-18T14:22:59.075Z,3.97
2018-10-18T14:25:28.881Z,5.63
2018-10-18T14:27:58.553Z,3.83
2018-10-18T14:30:28.483Z,3.97
2018-10-18T14:32:58.260Z,3.07
2018-10-18T14:35:28.101Z,4.80
2018-10-18T14:37:58.061Z,5.80
2018-10-18T14:40:27.773Z,4.33
2018-10-18T14:42:57.328Z,6.10
2018-10-18T14:45:26.967Z,5.57
2018-10-18T14:47:56.747Z,5.90
2018-10-18T14:50:26.485Z,5.87
2018-10-18T14:52:56.291Z,5.78
2018-10-18T14:55:26.244Z,4.67
2018-10-18T14:57:55.976Z,4.40
2018-10-18T15:00:25.867Z,3.98
2018-10-18T15:02:56.136Z,5.67
2018-10-18T15:05:26.962Z,4.17
2018-10-18T15:07:56.763Z,4.67
2018-10-18T15:10:26.450Z,5.67
2018-10-18T15:12:56.201Z,5.43
2018-10-18T15:15:26.077Z,5.93
2018-10-18T15:17:55.677Z,4.03
2018-10-18T15:20:25.467Z,3.77
2018-10-18T15:22:55.188Z,2.40
2018-10-18T15:25:25.201Z,4.83
2018-10-18T15:27:55.003Z,5.00
2018-10-18T15:30:24.837Z,5.37
2018-10-18T15:32:54.839Z,3.00
2018-10-18T15:35:24.677Z,3.62
2018-10-18T15:37:54.638Z,2.20
2018-10-18T15:40:24.422Z,2.77
2018-10-18T15:42:54.295Z,3.47
2018-10-18T15:45:24.247Z,5.53
2018-10-18T15:47:54.187Z,4.00
2018-10-18T15:50:24.329Z,3.70
2018-10-18T15:52:54.480Z,6.00
2018-10-18T15:55:24.175Z,10.77
2018-10-18T15:57:53.971Z,14.07
2018-10-18T16:00:24.053Z,6.43
2018-10-18T16:02:54.101Z,5.42
2018-10-18T16:05:24.188Z,7.30
2018-10-18T16:07:54.199Z,5.22
2018-10-18T16:10:24.133Z,7.25
2018-10-18T16:12:54.159Z,5.70
2018-10-18T16:15:24.527Z,5.65
2018-10-18T16:17:55.395Z,5.80
2018-10-18T16:20:25.326Z,6.90
2018-10-18T16:22:55.109Z,8.27
2018-10-18T16:25:25.138Z,5.97
2018-10-18T16:27:54.992Z,7.70
2018-10-18T16:30:24.799Z,7.30
2018-10-18T16:32:54.854Z,7.30
2018-10-18T16:35:24.727Z,7.07
2018-10-18T16:37:55.050Z,7.93
2018-10-18T16:40:24.962Z,7.07
2018-10-18T16:42:54.611Z,7.10
2018-10-18T16:45:24.695Z,7.83
2018-10-18T16:47:54.875Z,8.57
2018-10-18T16:50:24.837Z,11.07
2018-10-18T16:52:54.746Z,7.83
2018-10-18T16:55:24.454Z,9.50
2018-10-18T16:57:54.478Z,16.00
2018-10-18T17:00:24.278Z,19.37
2018-10-18T17:02:54.375Z,12.83
2018-10-18T17:05:24.385Z,11.07
2018-10-18T17:07:54.596Z,11.90
2018-10-18T17:10:25.522Z,13.13
2018-10-18T17:12:56.198Z,11.63
2018-10-18T17:15:26.060Z,13.70
2018-10-18T17:17:55.940Z,12.23
2018-10-18T17:20:27.591Z,21.95
2018-10-18T17:22:57.452Z,24.87
2018-10-18T17:25:27.807Z,13.50
2018-10-18T17:27:57.636Z,9.83
2018-10-18T17:30:27.596Z,7.70
2018-10-18T17:32:57.428Z,8.87
2018-10-18T17:35:27.379Z,7.83
2018-10-18T17:37:57.474Z,10.80
2018-10-18T17:40:27.418Z,9.65
2018-10-18T17:42:57.336Z,9.07
2018-10-18T17:45:27.274Z,10.47
2018-10-18T17:47:57.372Z,10.83
2018-10-18T17:50:27.523Z,10.95
2018-10-18T17:52:57.821Z,12.15
2018-10-18T17:55:27.599Z,8.73
2018-10-18T17:57:57.631Z,10.40
2018-10-18T18:00:27.673Z,8.90
2018-10-18T18:02:58.479Z,14.25
2018-10-18T18:10:26.408Z,12.77
2018-10-18T18:12:56.511Z,13.97
2018-10-18T18:15:26.421Z,9.47
2018-10-18T18:17:56.339Z,10.83
2018-10-18T18:20:26.343Z,15.50
2018-10-18T18:22:56.574Z,15.87
2018-10-18T18:25:26.705Z,17.13
2018-10-18T18:27:56.659Z,13.63
2018-10-18T18:30:26.682Z,17.83
2018-10-18T18:32:56.805Z,15.70
2018-10-18T18:35:26.623Z,15.78
2018-10-18T18:37:56.491Z,17.77
2018-10-18T18:40:26.595Z,16.20
2018-10-18T18:42:56.501Z,16.05
2018-10-18T18:45:30.603Z,20.80
2018-10-18T18:48:00.635Z,15.13
2018-10-18T18:50:30.672Z,14.20
2018-10-18T18:53:00.720Z,21.00
2018-10-18T18:55:30.466Z,18.50
2018-10-18T18:58:00.504Z,16.23
2018-10-18T19:00:30.426Z,15.13
2018-10-18T19:03:00.335Z,16.60
2018-10-18T19:05:30.440Z,14.87
2018-10-18T19:08:00.452Z,12.03
2018-10-18T19:10:30.635Z,12.10
2018-10-18T19:13:01.380Z,13.88
2018-10-18T19:15:31.596Z,16.42
2018-10-18T19:18:01.628Z,15.63
2018-10-18T19:20:31.615Z,15.40
2018-10-18T19:23:01.690Z,9.90
2018-10-18T19:25:31.535Z,17.80
2018-10-18T19:28:01.258Z,13.67
2018-10-18T19:30:31.113Z,17.80
2018-10-18T19:33:01.255Z,18.27
2018-10-18T19:35:31.168Z,17.53
2018-10-18T19:38:01.160Z,14.53
2018-10-18T19:40:31.207Z,14.27
2018-10-18T19:43:01.003Z,13.85
2018-10-18T19:45:31.292Z,14.65
2018-10-18T19:48:01.550Z,13.00
2018-10-18T19:50:31.623Z,17.63
2018-10-18T19:53:01.787Z,12.15
2018-10-18T19:55:31.968Z,22.70
2018-10-18T19:58:01.851Z,13.00
2018-10-18T20:00:31.826Z,25.62
2018-10-18T20:03:01.914Z,21.77
2018-10-18T20:05:31.581Z,13.43
2018-10-18T20:08:01.500Z,15.83
2018-10-18T20:10:31.787Z,16.23
2018-10-18T20:13:02.194Z,23.70
2018-10-18T20:15:32.102Z,17.10
2018-10-18T20:18:02.102Z,13.30
2018-10-18T20:20:32.076Z,16.00
2018-10-18T20:23:02.122Z,15.57
2018-10-18T20:25:32.245Z,16.17
2018-10-18T20:28:02.195Z,15.87
2018-10-18T20:30:32.157Z,18.93
2018-10-18T20:33:02.018Z,18.83
2018-10-18T20:35:32.295Z,16.35
2018-10-18T20:38:02.279Z,15.95
2018-10-18T20:40:32.415Z,15.08
2018-10-18T20:43:02.652Z,15.87
2018-10-18T20:45:33.517Z,16.85
2018-10-18T20:48:03.700Z,12.65
2018-10-18T20:50:33.470Z,16.93
2018-10-18T20:53:03.335Z,18.77
2018-10-18T20:55:33.314Z,21.13
2018-10-18T20:58:03.213Z,23.53
2018-10-18T21:00:33.249Z,16.07
2018-10-18T21:03:03.233Z,14.47
2018-10-18T21:05:33.179Z,14.87
2018-10-18T21:08:02.943Z,17.20
2018-10-18T21:10:32.832Z,14.03
2018-10-18T21:13:02.701Z,16.47
2018-10-18T21:15:33.512Z,14.57
2018-10-18T21:18:04.215Z,12.37
2018-10-18T21:20:34.072Z,13.90
2018-10-18T21:23:03.981Z,13.43
2018-10-18T21:25:33.968Z,13.10
2018-10-18T21:28:03.847Z,15.13
2018-10-18T21:30:33.715Z,11.93
2018-10-18T21:33:03.434Z,16.10
2018-10-18T21:35:33.324Z,13.80
2018-10-18T21:38:03.437Z,11.63
2018-10-18T21:40:33.188Z,11.90
2018-10-18T21:43:03.489Z,18.05
2018-10-18T21:45:33.424Z,14.50
2018-10-18T21:48:03.561Z,14.23
2018-10-18T21:50:33.483Z,12.30
2018-10-18T21:53:03.340Z,14.55
2018-10-18T21:55:33.162Z,34.03
2018-10-18T21:58:02.865Z,26.05
2018-10-18T22:00:37.005Z,19.57
2018-10-18T22:03:06.893Z,17.62
2018-10-18T22:05:36.570Z,14.17
2018-10-18T22:08:06.773Z,14.30
2018-10-18T22:10:36.495Z,13.27
2018-10-18T22:13:06.435Z,12.03
2018-10-18T22:15:36.327Z,11.50
2018-10-18T22:18:06.328Z,11.10
2018-10-18T22:20:36.040Z,12.80
2018-10-18T22:23:05.991Z,11.37
2018-10-18T22:25:37.007Z,14.50
2018-10-18T22:28:07.913Z,12.97
2018-10-18T22:35:34.825Z,17.00
2018-10-18T22:38:04.641Z,13.10
2018-10-18T22:40:34.413Z,14.03
2018-10-18T22:43:04.355Z,13.67
2018-10-18T22:45:34.101Z,12.68
2018-10-18T22:48:03.653Z,20.20
2018-10-18T22:50:33.617Z,17.00
2018-10-18T22:53:03.756Z,10.47
2018-10-18T22:55:33.308Z,12.37
2018-10-18T22:58:03.012Z,12.63
2018-10-18T23:00:32.608Z,12.53
2018-10-18T23:03:02.692Z,16.65
2018-10-18T23:05:32.555Z,13.27
2018-10-18T23:08:02.390Z,13.17
2018-10-18T23:10:32.223Z,12.57
2018-10-18T23:13:01.974Z,13.40
2018-10-18T23:15:31.529Z,16.53
2018-10-18T23:18:02.001Z,16.82
2018-10-18T23:20:31.667Z,11.50
2018-10-18T23:23:01.546Z,13.87
2018-10-18T23:25:31.222Z,15.63
2018-10-18T23:28:00.777Z,16.00
2018-10-18T23:30:30.378Z,16.60
2018-10-18T23:33:00.023Z,16.00
2018-10-18T23:35:29.709Z,15.90
2018-10-18T23:37:59.495Z,12.70
2018-10-18T23:40:29.173Z,13.88
2018-10-18T23:42:58.908Z,13.60
2018-10-18T23:45:28.602Z,15.73
2018-10-18T23:47:58.221Z,14.13
2018-10-18T23:50:27.968Z,17.30
2018-10-18T23:52:57.625Z,18.30
2018-10-18T23:55:27.298Z,17.60
2018-10-18T23:57:57.079Z,15.72
